Time;durP1;ratioP1;P1;durP2;ratioP2;P2;SDS_P1;SDS_P2;PMS_P1;PMS_P2;Temp;Humidity;BMP_temperature;BMP_pressure;BME280_temperature;BME280_humidity;BME280_pressure;Samples;Min_cycle;Max_cycle;Signal;HPM_P1;HPM_P2
2021/01/19 00:01:02;;;;;;;396.52;168.37;;;;;;;-11.12;56.80;94626.09;1761249;80;21134;-50
2021/01/19 00:03:31;;;;;;;392.95;169.43;;;;;;;-11.15;57.22;94625.94;1761360;81;21173;-49
2021/01/19 00:06:00;;;;;;;406.13;172.85;;;;;;;-10.98;56.85;94631.22;1761291;80;21434;-48
2021/01/19 00:08:31;;;;;;;427.13;183.10;;;;;;;-10.91;56.51;94639.47;1761279;81;21086;-48
2021/01/19 00:11:02;;;;;;;450.77;192.80;;;;;;;-10.97;55.94;94646.05;1761306;80;21145;-49
2021/01/19 00:13:31;;;;;;;401.13;170.60;;;;;;;-11.02;55.84;94652.30;1761340;80;21165;-48
2021/01/19 00:16:00;;;;;;;407.70;165.25;;;;;;;-10.96;55.49;94644.95;1761309;81;21066;-48
2021/01/19 00:18:28;;;;;;;403.95;173.65;;;;;;;-11.03;55.23;94644.64;1761314;80;21386;-48
2021/01/19 00:20:57;;;;;;;418.50;177.75;;;;;;;-11.07;55.06;94646.38;1761357;80;21522;-49
2021/01/19 00:23:25;;;;;;;410.48;172.60;;;;;;;-11.01;55.41;94654.42;1761292;81;21134;-48
2021/01/19 00:25:53;;;;;;;439.25;177.68;;;;;;;-10.91;54.89;94658.06;1761317;80;21180;-49
2021/01/19 00:28:22;;;;;;;420.32;177.35;;;;;;;-10.88;54.89;94662.73;1761267;80;21133;-48
2021/01/19 00:30:50;;;;;;;405.95;164.05;;;;;;;-10.82;55.10;94658.84;1761316;81;21436;-48
2021/01/19 00:33:18;;;;;;;412.45;167.00;;;;;;;-10.82;54.93;94658.84;1761232;80;21526;-49
2021/01/19 00:35:48;;;;;;;415.28;172.98;;;;;;;-10.85;55.08;94651.48;1761232;80;21089;-47
2021/01/19 00:38:16;;;;;;;410.07;172.10;;;;;;;-10.88;55.20;94650.25;1747334;80;21507;-48
2021/01/19 00:40:45;;;;;;;446.87;189.30;;;;;;;-10.99;55.37;94654.32;1742627;81;21135;-48
2021/01/19 00:43:13;;;;;;;405.93;177.00;;;;;;;-11.10;55.74;94654.97;1742683;82;21415;-47
2021/01/19 00:45:42;;;;;;;401.73;170.55;;;;;;;-11.30;56.19;94645.00;1742539;80;21159;-48
2021/01/19 00:48:10;;;;;;;407.35;178.53;;;;;;;-11.37;56.47;94644.14;1742562;82;21063;-48
2021/01/19 00:50:39;;;;;;;437.32;191.18;;;;;;;-11.43;56.66;94648.05;1742691;81;21078;-48
2021/01/19 00:53:07;;;;;;;436.25;180.65;;;;;;;-11.44;57.02;94645.70;1742638;81;21083;-48
2021/01/19 00:55:36;;;;;;;438.22;178.90;;;;;;;-11.34;56.95;94640.09;1742615;81;21282;-48
2021/01/19 00:58:06;;;;;;;448.90;193.52;;;;;;;-11.29;56.48;94635.94;1742619;82;21578;-48
2021/01/19 01:00:35;;;;;;;446.70;195.90;;;;;;;-11.31;56.63;94635.48;1742702;80;21070;-48
2021/01/19 01:03:04;;;;;;;437.45;183.25;;;;;;;-11.23;56.71;94629.37;1742573;82;21138;-48
2021/01/19 01:05:32;;;;;;;402.32;172.32;;;;;;;-11.15;56.68;94630.69;1742708;82;21118;-48
2021/01/19 01:08:02;;;;;;;342.43;145.40;;;;;;;-11.06;56.93;94630.14;1742605;80;21364;-48
2021/01/19 01:10:31;;;;;;;256.02;111.68;;;;;;;-10.76;56.56;94621.70;1742540;81;21332;-47
2021/01/19 01:12:59;;;;;;;296.50;125.22;;;;;;;-10.55;56.30;94628.67;1742594;80;21087;-49
2021/01/19 01:15:35;;;;;;;308.70;129.07;;;;;;;-10.37;56.02;94621.40;1742523;80;21119;-48
2021/01/19 01:18:06;;;;;;;265.52;117.20;;;;;;;-10.19;55.31;94615.13;1742680;82;21153;-48
2021/01/19 01:20:34;;;;;;;226.05;96.10;;;;;;;-10.10;55.10;94616.41;1742264;81;21219;-48
2021/01/19 01:23:03;;;;;;;186.70;84.75;;;;;;;-10.00;55.05;94614.13;1742530;82;21150;-49
2021/01/19 01:25:31;;;;;;;377.20;162.80;;;;;;;-9.81;54.78;94605.16;1742575;82;21170;-48
2021/01/19 01:28:00;;;;;;;369.60;162.57;;;;;;;-9.79;54.78;94612.84;1742492;81;21099;-48
2021/01/19 01:30:29;;;;;;;375.70;160.03;;;;;;;-9.82;55.16;94610.83;1742593;82;21082;-48
2021/01/19 01:32:57;;;;;;;385.75;158.32;;;;;;;-9.78;55.22;94611.17;1742579;82;21448;-48
2021/01/19 01:35:25;;;;;;;394.82;173.20;;;;;;;-9.77;54.95;94619.94;1742530;82;21129;-48
2021/01/19 01:37:55;;;;;;;395.65;166.90;;;;;;;-9.91;54.95;94618.86;1751259;80;21183;-48
2021/01/19 01:40:27;;;;;;;364.48;151.72;;;;;;;-10.03;55.26;94624.12;1766912;79;21132;-48
2021/01/19 01:42:59;;;;;;;418.52;175.82;;;;;;;-10.21;55.26;94621.89;1767030;81;21069;-48
2021/01/19 01:45:28;;;;;;;430.45;177.00;;;;;;;-10.56;55.48;94617.02;1767093;81;21653;-48
2021/01/19 01:47:57;;;;;;;405.25;168.68;;;;;;;-10.68;56.14;94620.89;1766974;81;21501;-48
2021/01/19 01:50:26;;;;;;;401.55;168.35;;;;;;;-10.49;56.06;94630.58;1767020;81;21077;-49
2021/01/19 01:52:55;;;;;;;419.30;173.00;;;;;;;-10.36;55.79;94614.45;1766882;79;21141;-48
2021/01/19 01:55:23;;;;;;;436.32;180.52;;;;;;;-10.19;55.72;94620.45;1766930;79;21073;-48
2021/01/19 01:57:52;;;;;;;436.30;185.55;;;;;;;-10.22;55.53;94619.77;1766895;81;21205;-47
2021/01/19 02:00:21;;;;;;;458.35;194.10;;;;;;;-10.31;55.79;94611.60;1766879;79;21154;-48
2021/01/19 02:02:56;;;;;;;427.35;176.80;;;;;;;-10.47;55.85;94616.45;1767013;81;21093;-48
2021/01/19 02:05:25;;;;;;;404.68;169.50;;;;;;;-10.50;56.05;94614.41;1766898;79;21129;-48
2021/01/19 02:08:43;;;;;;;367.07;145.45;;;;;;;-10.44;56.13;94614.48;1767002;81;21160;-48
2021/01/19 02:11:34;;;;;;;339.68;138.43;;;;;;;-10.44;56.12;94615.81;1767028;81;21378;-49
2021/01/19 02:14:23;;;;;;;358.57;141.62;;;;;;;-10.38;56.33;94611.33;1709498;81;21125;-49
2021/01/19 02:17:26;;;;;;;374.77;153.10;;;;;;;-10.23;55.99;94608.11;1735950;81;21637;-48
2021/01/19 02:20:27;;;;;;;394.70;159.30;;;;;;;-10.14;55.73;94612.28;1767025;81;21136;-49
2021/01/19 02:23:38;;;;;;;399.10;168.37;;;;;;;-10.26;55.45;94611.41;1766935;80;21149;-47
2021/01/19 02:26:40;;;;;;;415.98;177.47;;;;;;;-10.28;55.74;94610.42;1766903;80;21380;-48
2021/01/19 02:29:40;;;;;;;444.60;180.85;;;;;;;-10.15;55.28;94604.64;1751927;79;21172;-48
2021/01/19 02:32:51;;;;;;;411.92;168.97;;;;;;;-10.01;55.23;94604.59;1766922;80;21061;-48
2021/01/19 02:35:43;;;;;;;398.25;163.35;;;;;;;-9.76;54.77;94602.30;1766963;81;21062;-49
2021/01/19 02:38:38;;;;;;;424.00;171.25;;;;;;;-9.62;54.38;94604.73;1762915;80;21197;-49
2021/01/19 02:41:06;;;;;;;411.98;171.68;;;;;;;-9.67;54.08;94610.23;1759069;80;21518;-48
2021/01/19 02:43:35;;;;;;;430.48;181.00;;;;;;;-9.70;54.02;94613.00;1759005;81;21144;-48
2021/01/19 02:46:03;;;;;;;415.02;174.07;;;;;;;-9.76;54.09;94600.21;1759038;80;21098;-48
2021/01/19 02:48:31;;;;;;;439.60;189.80;;;;;;;-9.83;54.47;94608.70;1759073;81;21169;-49
2021/01/19 02:51:00;;;;;;;437.23;189.65;;;;;;;-9.74;54.55;94601.99;1759078;81;21081;-48
2021/01/19 02:53:29;;;;;;;423.97;181.45;;;;;;;-9.70;54.55;94604.23;1759045;80;21208;-48
2021/01/19 02:55:58;;;;;;;389.17;162.03;;;;;;;-9.56;55.11;94597.56;1759020;80;21076;-50
2021/01/19 02:58:57;;;;;;;421.07;176.35;;;;;;;-9.27;54.89;94598.80;1759163;81;21070;-49
2021/01/19 03:01:27;;;;;;;404.02;161.45;;;;;;;-9.22;54.56;94597.81;1759251;81;21161;-49
2021/01/19 03:03:58;;;;;;;408.75;164.22;;;;;;;-9.18;54.67;94603.50;1759260;81;21062;-47
2021/01/19 03:06:30;;;;;;;323.07;129.93;;;;;;;-9.04;54.77;94603.97;1759239;81;22161;-48
2021/01/19 03:08:59;;;;;;;312.67;130.53;;;;;;;-8.96;54.40;94599.13;1759503;81;21082;-48
2021/01/19 03:11:27;;;;;;;270.33;116.85;;;;;;;-9.08;54.39;94593.00;1759223;80;21058;-48
2021/01/19 03:13:55;;;;;;;282.32;117.67;;;;;;;-9.28;54.74;94604.46;1759329;81;21132;-48
2021/01/19 03:16:24;;;;;;;383.23;162.00;;;;;;;-9.34;54.85;94601.21;1759182;80;21244;-48
2021/01/19 03:18:53;;;;;;;395.25;166.32;;;;;;;-9.54;54.97;94594.02;1759195;80;21378;-47
2021/01/19 03:21:22;;;;;;;358.75;153.57;;;;;;;-9.68;55.63;94599.36;1759133;80;21133;-47
2021/01/19 03:23:50;;;;;;;378.02;167.90;;;;;;;-9.80;56.01;94597.41;1759215;81;21058;-48
2021/01/19 03:26:19;;;;;;;305.87;131.57;;;;;;;-9.90;56.52;94593.81;1759296;81;21074;-48
2021/01/19 03:28:47;;;;;;;336.70;144.90;;;;;;;-9.76;56.86;94594.32;1759153;80;21070;-48
2021/01/19 03:31:16;;;;;;;294.65;130.12;;;;;;;-9.58;56.89;94598.41;1759198;80;22392;-48
2021/01/19 03:33:44;;;;;;;321.43;134.45;;;;;;;-9.30;56.54;94588.80;1759141;80;21182;-49
2021/01/19 03:36:13;;;;;;;181.00;77.50;;;;;;;-9.28;56.21;94583.92;1759210;80;21122;-48
2021/01/19 03:38:42;;;;;;;299.27;128.23;;;;;;;-9.43;56.22;94577.86;1759118;81;21117;-48
2021/01/19 03:41:10;;;;;;;298.25;128.25;;;;;;;-9.71;56.55;94586.17;1759194;80;21081;-48
2021/01/19 03:43:39;;;;;;;306.23;132.07;;;;;;;-9.86;57.02;94582.75;1759212;81;21440;-47
2021/01/19 03:46:08;;;;;;;250.43;107.78;;;;;;;-10.01;57.39;94583.32;1759144;80;21078;-49
2021/01/19 03:48:37;;;;;;;277.07;124.97;;;;;;;-10.08;57.77;94584.42;1759185;80;21467;-48
2021/01/19 03:51:05;;;;;;;310.50;132.18;;;;;;;-10.19;58.11;94585.12;1759172;80;21154;-48
2021/01/19 03:53:34;;;;;;;304.20;128.80;;;;;;;-10.24;58.46;94583.42;1759167;80;21145;-49
2021/01/19 03:56:02;;;;;;;328.92;136.22;;;;;;;-10.21;58.75;94580.11;1759259;81;22186;-48
2021/01/19 03:58:30;;;;;;;301.35;128.27;;;;;;;-10.14;58.84;94575.62;1759092;80;21081;-49
2021/01/19 04:00:58;;;;;;;323.48;135.48;;;;;;;-10.04;59.02;94569.91;1759186;81;21058;-49
2021/01/19 04:03:28;;;;;;;299.32;123.05;;;;;;;-9.87;58.86;94579.87;1759160;80;21086;-48
2021/01/19 04:05:56;;;;;;;306.45;122.45;;;;;;;-9.85;58.59;94575.00;1759189;81;21066;-48
2021/01/19 04:08:24;;;;;;;298.80;126.42;;;;;;;-9.82;58.57;94573.58;1759182;80;23678;-48
2021/01/19 04:10:54;;;;;;;315.25;130.78;;;;;;;-9.80;58.50;94578.79;1759129;80;21153;-49
2021/01/19 04:13:22;;;;;;;306.25;129.97;;;;;;;-9.67;58.54;94576.43;1759140;81;21609;-49
2021/01/19 04:15:50;;;;;;;297.77;121.75;;;;;;;-9.43;58.48;94573.11;1759174;80;21070;-48
2021/01/19 04:18:19;;;;;;;342.77;140.97;;;;;;;-9.27;58.22;94577.48;1759149;81;21010;-49
2021/01/19 04:20:47;;;;;;;330.55;140.50;;;;;;;-9.26;58.19;94575.62;1759235;80;22298;-49
2021/01/19 04:23:15;;;;;;;290.60;120.25;;;;;;;-9.27;58.30;94577.48;1759120;80;21085;-49
2021/01/19 04:25:45;;;;;;;228.47;106.30;;;;;;;-9.27;58.32;94574.83;1759230;81;21542;-49
2021/01/19 04:28:13;;;;;;;175.68;79.70;;;;;;;-9.17;58.45;94569.11;1759122;80;21141;-48
2021/01/19 04:30:42;;;;;;;153.47;71.65;;;;;;;-8.98;58.00;94564.05;1759152;81;21249;-48
2021/01/19 04:33:13;;;;;;;150.47;71.67;;;;;;;-8.83;57.58;94561.30;1759200;80;21209;-49
2021/01/19 04:35:43;;;;;;;136.32;62.00;;;;;;;-8.61;57.40;94559.02;1758950;81;21118;-48
2021/01/19 04:38:12;;;;;;;138.40;63.78;;;;;;;-8.36;56.76;94563.23;1758938;80;21253;-48
2021/01/19 04:40:41;;;;;;;157.85;78.65;;;;;;;-8.21;56.45;94559.91;1759162;80;21150;-48
2021/01/19 04:43:09;;;;;;;134.70;60.52;;;;;;;-8.03;56.06;94559.30;1759168;81;21086;-48
2021/01/19 04:45:39;;;;;;;148.02;66.87;;;;;;;-7.90;55.29;94558.75;1759132;81;21992;-49
2021/01/19 04:48:08;;;;;;;131.65;62.35;;;;;;;-7.74;54.74;94557.70;1759087;80;21086;-47
2021/01/19 04:50:37;;;;;;;119.95;58.58;;;;;;;-7.72;54.75;94554.70;1759237;81;21106;-49
2021/01/19 04:53:06;;;;;;;104.40;53.45;;;;;;;-7.60;54.53;94546.11;1759121;81;21145;-49
2021/01/19 04:55:39;;;;;;;97.90;50.83;;;;;;;-7.62;54.47;94551.55;1759246;80;21519;-48
2021/01/19 04:58:08;;;;;;;111.30;54.33;;;;;;;-7.73;54.57;94549.16;1759086;80;21207;-48
2021/01/19 05:00:37;;;;;;;102.17;50.95;;;;;;;-7.82;54.65;94558.63;1731867;81;21519;-49
2021/01/19 05:03:20;;;;;;;94.70;44.10;;;;;;;-7.83;54.66;94558.95;1759139;81;21133;-48
2021/01/19 05:06:01;;;;;;;109.15;46.55;;;;;;;-7.96;54.80;94562.73;1759298;80;21081;-48
2021/01/19 05:08:34;;;;;;;124.72;58.30;;;;;;;-8.15;55.00;94550.53;1759185;80;21037;-49
2021/01/19 05:11:02;;;;;;;106.27;49.18;;;;;;;-8.28;55.19;94553.80;1758712;80;22113;-48
2021/01/19 05:13:53;;;;;;;148.75;69.47;;;;;;;-8.30;55.19;94548.56;1759082;81;21216;-48
2021/01/19 05:16:33;;;;;;;196.72;87.45;;;;;;;-8.15;55.60;94542.53;1759173;80;21129;-48
2021/01/19 05:19:03;;;;;;;236.97;104.43;;;;;;;-7.93;55.58;94546.84;1759139;81;21625;-48
2021/01/19 05:21:38;;;;;;;226.32;98.22;;;;;;;-7.98;55.65;94554.30;1759151;81;21621;-48
2021/01/19 05:24:07;;;;;;;170.90;77.40;;;;;;;-8.00;55.75;94557.31;1759133;81;21339;-48
2021/01/19 05:26:38;;;;;;;139.75;66.02;;;;;;;-7.97;55.34;94555.84;1759083;81;21494;-48
2021/01/19 05:29:06;;;;;;;144.82;64.03;;;;;;;-8.08;55.27;94560.10;1732191;81;21093;-48
2021/01/19 05:31:35;;;;;;;139.95;62.25;;;;;;;-8.07;55.30;94548.31;1759069;80;21161;-51
2021/01/19 05:34:11;;;;;;;138.22;63.85;;;;;;;-8.13;55.61;94549.64;1759102;81;21177;-49
2021/01/19 05:36:45;;;;;;;131.18;60.90;;;;;;;-8.01;55.64;94552.30;1759139;81;21204;-49
2021/01/19 05:39:18;;;;;;;;;;;;;;;-7.94;55.79;94550.63;1761563;80;21557;-48
2021/01/19 05:41:51;;;;;;;125.78;57.13;;;;;;;-7.91;55.97;94546.52;1759140;81;20212;-48
2021/01/19 05:44:29;;;;;;;;;;;;;;;-7.89;55.83;94541.05;1761691;81;21125;-48
2021/01/19 05:47:02;;;;;;;135.52;59.95;;;;;;;-7.78;56.03;94542.15;1759144;81;20241;-49
2021/01/19 05:49:38;;;;;;;141.62;66.65;;;;;;;-7.63;55.84;94539.31;1759284;80;22082;-49
2021/01/19 05:52:15;;;;;;;136.05;62.00;;;;;;;-7.42;56.00;94545.26;1759043;81;21078;-49
2021/01/19 05:54:51;;;;;;;142.55;66.28;;;;;;;-7.04;55.35;94538.31;1832533;77;22678;-49
2021/01/19 05:57:23;;;;;;;129.72;64.05;;;;;;;-7.05;54.94;94549.33;1790890;80;21486;-49
2021/01/19 06:00:06;;;;;;;152.55;74.53;;;;;;;-7.05;54.75;94547.45;1790957;79;21192;-49
2021/01/19 06:02:43;;;;;;;152.82;71.87;;;;;;;-7.05;54.75;94543.44;1790792;79;21097;-49
2021/01/19 06:05:17;;;;;;;146.60;68.87;;;;;;;-7.08;54.77;94546.02;1790810;78;21125;-50
2021/01/19 06:07:46;;;;;;;140.47;66.30;;;;;;;-7.17;54.68;94533.38;1790803;80;21101;-49
2021/01/19 06:10:20;;;;;;;132.67;65.20;;;;;;;-7.34;55.14;94533.67;1790836;79;21122;-49
2021/01/19 06:12:48;;;;;;;142.30;66.50;;;;;;;-7.37;55.25;94534.36;1790893;78;22239;-50
2021/01/19 06:15:27;;;;;;;151.57;71.85;;;;;;;-7.32;55.32;94530.09;1790678;80;21117;-50
2021/01/19 06:17:56;;;;;;;143.20;68.42;;;;;;;-7.14;55.57;94530.02;1790779;78;21152;-50
2021/01/19 06:20:24;;;;;;;155.37;76.22;;;;;;;-6.94;55.76;94519.88;1790743;80;21144;-50
2021/01/19 06:22:53;;;;;;;169.75;82.15;;;;;;;-6.76;55.35;94519.77;1790754;80;21152;-48
2021/01/19 06:25:21;;;;;;;164.70;81.65;;;;;;;-6.67;55.12;94516.36;1771109;80;22102;-48
2021/01/19 06:27:50;;;;;;;182.07;94.87;;;;;;;-6.56;55.32;94517.41;1790651;78;21085;-49
2021/01/19 06:30:19;;;;;;;175.40;90.87;;;;;;;-6.37;55.14;94515.38;1760249;80;21581;-49
2021/01/19 06:32:50;;;;;;;221.00;114.40;;;;;;;-6.29;55.11;94507.73;1709401;83;21171;-49
2021/01/19 06:35:23;;;;;;;188.05;96.72;;;;;;;-6.29;55.04;94511.73;1759641;80;21053;-49
2021/01/19 06:37:54;;;;;;;222.02;119.50;;;;;;;-6.26;54.90;94509.16;1759610;80;22818;-49
2021/01/19 06:40:24;;;;;;;194.17;108.42;;;;;;;-6.26;54.64;94512.38;1759482;80;21533;-49
2021/01/19 06:43:02;;;;;;;206.80;104.67;;;;;;;-6.21;55.03;94507.55;1759585;80;21089;-51
2021/01/19 06:45:31;;;;;;;187.47;98.25;;;;;;;-5.98;54.88;94506.34;1759504;80;21099;-49
2021/01/19 06:48:02;;;;;;;197.00;105.37;;;;;;;-5.96;54.78;94506.19;1759486;80;21069;-49
2021/01/19 06:50:37;;;;;;;204.43;107.07;;;;;;;-5.88;54.54;94507.91;1759478;80;21198;-48
2021/01/19 06:53:24;;;;;;;236.00;114.75;;;;;;;-5.83;54.64;94503.61;1759310;80;21365;-50
2021/01/19 06:56:07;;;;;;;264.68;128.97;;;;;;;-5.77;54.34;94497.40;1759469;80;21092;-50
2021/01/19 06:58:52;;;;;;;263.57;135.80;;;;;;;-5.94;54.66;94505.27;1758678;80;21132;-49
2021/01/19 07:01:28;;;;;;;242.57;122.95;;;;;;;-5.97;54.90;94503.30;1750727;80;22536;-50
2021/01/19 07:04:03;;;;;;;252.57;122.28;;;;;;;-6.02;54.98;94503.58;1757497;81;21269;-52
2021/01/19 07:07:07;;;;;;;260.90;133.72;;;;;;;-5.95;55.35;94503.72;1746827;81;21610;-51
2021/01/19 07:09:58;;;;;;;273.45;142.00;;;;;;;-5.76;55.34;94506.98;1702127;80;21212;-50
2021/01/19 07:12:54;;;;;;;267.70;128.50;;;;;;;-5.60;55.57;94500.44;1761687;80;21136;-56
2021/01/19 07:15:56;;;;;;;245.40;122.90;;;;;;;-5.44;55.18;94511.87;1755897;80;21176;-53
2021/01/19 07:18:43;;;;;;;213.07;110.72;;;;;;;-5.38;55.32;94509.69;1725577;80;22315;-51
2021/01/19 07:21:17;;;;;;;204.68;109.25;;;;;;;-5.28;55.63;94509.89;1763318;80;21095;-50
2021/01/19 07:23:53;;;;;;;178.00;90.65;;;;;;;-5.28;55.74;94509.89;1749637;81;21206;-54
2021/01/19 07:26:38;;;;;;;173.53;86.65;;;;;;;-5.14;55.69;94507.50;1741875;81;21184;-51
2021/01/19 07:29:07;;;;;;;132.07;67.15;;;;;;;-4.91;55.40;94506.41;1739962;81;21226;-53
2021/01/19 07:31:35;;;;;;;146.68;77.53;;;;;;;-4.78;54.95;94513.14;1749041;81;21470;-50
2021/01/19 07:36:53;;;;;;;151.10;75.57;;;;;;;-4.41;54.86;94516.10;1798924;77;22877;-48
2021/01/19 07:39:21;;;;;;;181.40;93.15;;;;;;;-4.34;54.31;94510.28;1773793;79;21063;-49
2021/01/19 07:41:49;;;;;;;156.40;75.97;;;;;;;-4.25;54.04;94513.48;1773851;79;21559;-51
2021/01/19 07:44:22;;;;;;;147.28;78.33;;;;;;;-4.25;54.01;94510.04;1773837;79;21579;-50
2021/01/19 07:46:52;;;;;;;154.35;76.70;;;;;;;-4.28;54.10;94504.05;1769361;79;21095;-51
2021/01/19 07:49:24;;;;;;;142.95;75.67;;;;;;;-4.29;54.10;94506.50;1773608;81;21551;-49
2021/01/19 07:51:53;;;;;;;137.40;71.67;;;;;;;-4.35;54.36;94497.20;1742619;81;21468;-50
2021/01/19 07:54:27;;;;;;;128.60;65.35;;;;;;;-4.32;54.84;94505.33;1773748;81;21185;-50
2021/01/19 07:56:57;;;;;;;106.65;56.35;;;;;;;-4.00;54.59;94497.75;1773706;79;21681;-50
2021/01/19 07:59:26;;;;;;;126.58;63.52;;;;;;;-3.72;54.25;94498.94;1773813;81;21555;-50
2021/01/19 08:01:58;;;;;;;119.20;59.50;;;;;;;-3.48;54.03;94499.83;1773801;79;21098;-50
2021/01/19 08:04:33;;;;;;;140.10;74.35;;;;;;;-3.44;53.67;94503.36;1767313;79;21154;-50
2021/01/19 08:07:15;;;;;;;142.68;75.72;;;;;;;-3.50;53.99;94501.55;1767133;79;21379;-50
2021/01/19 08:09:44;;;;;;;145.10;78.15;;;;;;;-3.33;54.29;94511.77;1703921;82;21116;-50
2021/01/19 08:12:15;;;;;;;104.38;52.85;;;;;;;-3.29;54.30;94515.27;1732974;82;21155;-50
2021/01/19 08:14:45;;;;;;;128.30;67.92;;;;;;;-3.34;54.00;94515.59;1703866;83;21536;-49
2021/01/19 08:17:13;;;;;;;128.38;71.00;;;;;;;-3.38;53.96;94509.95;1731724;81;21107;-52
2021/01/19 08:19:43;;;;;;;108.42;57.50;;;;;;;-3.23;54.34;94512.45;1724759;81;21580;-49
2021/01/19 08:22:12;;;;;;;45.33;27.05;;;;;;;-2.93;53.66;94509.72;1726230;83;21097;-51
2021/01/19 08:24:43;;;;;;;29.55;18.50;;;;;;;-2.77;52.71;94503.00;1710514;81;21143;-50
2021/01/19 08:27:11;;;;;;;26.10;18.23;;;;;;;-2.75;52.37;94508.78;1708936;82;21236;-50
2021/01/19 08:29:40;;;;;;;47.10;24.02;;;;;;;-2.90;52.34;94508.42;1702369;82;21141;-51
2021/01/19 08:32:12;;;;;;;34.38;21.97;;;;;;;-3.04;52.82;94507.50;1695406;84;21217;-50
2021/01/19 08:34:40;;;;;;;38.95;23.40;;;;;;;-3.12;52.92;94498.57;1712117;83;21187;-49
2021/01/19 08:37:11;;;;;;;28.77;19.90;;;;;;;-3.14;53.34;94504.89;1725254;83;21123;-51
2021/01/19 08:39:39;;;;;;;28.35;19.23;;;;;;;-3.16;53.73;94507.17;1684545;82;21161;-54
2021/01/19 08:42:11;;;;;;;29.87;19.30;;;;;;;-3.22;53.59;94505.93;1681685;84;21119;-50
2021/01/19 08:44:40;;;;;;;29.05;18.90;;;;;;;-3.36;54.33;94508.47;1683448;84;22379;-51
2021/01/19 08:47:08;;;;;;;35.28;22.02;;;;;;;-3.35;54.71;94508.67;1693260;83;21815;-49
2021/01/19 08:49:38;;;;;;;34.70;21.20;;;;;;;-3.26;54.74;94505.12;1682866;84;21155;-55
2021/01/19 08:52:07;;;;;;;32.78;19.42;;;;;;;-3.18;54.50;94508.67;1677609;84;21171;-51
2021/01/19 08:54:35;;;;;;;28.30;19.45;;;;;;;-3.14;54.45;94512.96;1695836;83;21191;-50
2021/01/19 08:57:05;;;;;;;31.55;21.23;;;;;;;-3.11;54.12;94505.50;1689799;84;21238;-53
2021/01/19 08:59:35;;;;;;;31.93;20.77;;;;;;;-2.99;54.32;94502.57;1689469;82;21613;-51
2021/01/19 09:02:05;;;;;;;37.70;23.22;;;;;;;-2.82;54.09;94511.41;1703037;83;21721;-52
2021/01/19 09:04:33;;;;;;;32.30;20.23;;;;;;;-2.71;53.70;94498.82;1698164;83;21590;-53
2021/01/19 09:07:10;;;;;;;34.27;20.68;;;;;;;-2.51;53.16;94498.06;1691524;83;21099;-53
2021/01/19 09:09:47;;;;;;;36.15;21.75;;;;;;;-2.40;52.75;94498.36;1688192;84;21519;-55
2021/01/19 09:12:20;;;;;;;35.85;21.52;;;;;;;-2.40;52.65;94498.36;1687093;84;21262;-51
2021/01/19 09:14:53;;;;;;;42.13;23.40;;;;;;;-2.35;53.03;94504.75;1677467;84;21186;-50
2021/01/19 09:17:24;;;;;;;36.13;22.65;;;;;;;-2.36;52.73;94495.71;1698369;84;21898;-50
2021/01/19 09:20:07;;;;;;;45.58;26.45;;;;;;;-2.33;52.90;94506.49;1672638;84;21166;-51
2021/01/19 09:22:52;;;;;;;38.90;26.43;;;;;;;-2.17;52.92;94492.80;1852799;75;28352;-50
2021/01/19 09:25:23;;;;;;;30.37;20.72;;;;;;;-1.92;52.24;94488.36;1821396;76;22144;-52
2021/01/19 09:27:51;;;;;;;39.10;25.43;;;;;;;-1.78;51.09;94482.48;1827744;77;22254;-50
2021/01/19 09:30:22;;;;;;;30.35;20.72;;;;;;;-1.66;51.61;94475.44;1733083;79;21101;-51
2021/01/19 09:32:50;;;;;;;43.25;29.65;;;;;;;-1.50;51.18;94473.98;1785231;79;21600;-51
2021/01/19 09:35:20;;;;;;;32.38;21.60;;;;;;;-1.35;50.73;94462.12;1782145;78;21191;-50
2021/01/19 09:37:50;;;;;;;34.23;21.75;;;;;;;-1.32;50.91;94474.09;1788952;79;21625;-50
2021/01/19 09:40:19;;;;;;;35.28;21.77;;;;;;;-1.27;50.71;94465.63;1798112;78;21202;-53
2021/01/19 09:42:48;;;;;;;28.45;17.82;;;;;;;-1.26;50.18;94461.77;1726502;78;21461;-52
2021/01/19 09:45:19;;;;;;;30.37;19.65;;;;;;;-1.26;50.19;94455.02;1793755;78;21168;-51
2021/01/19 09:47:49;;;;;;;29.48;20.50;;;;;;;-1.38;50.02;94459.39;1798974;78;21883;-51
2021/01/19 09:50:17;;;;;;;32.90;21.62;;;;;;;-1.50;50.49;94454.34;1800038;78;21113;-53
2021/01/19 09:52:46;;;;;;;31.90;20.10;;;;;;;-1.47;50.54;94444.91;1823746;78;22249;-51
2021/01/19 09:55:20;;;;;;;39.38;22.45;;;;;;;-1.35;50.21;94448.62;1799676;78;21487;-51
2021/01/19 09:58:02;;;;;;;34.25;20.82;;;;;;;-1.20;50.00;94440.01;1804991;78;21178;-48
2021/01/19 10:00:36;;;;;;;36.38;22.48;;;;;;;-0.98;49.89;94442.41;1796459;78;21178;-49
2021/01/19 10:03:16;;;;;;;28.90;18.07;;;;;;;-0.87;48.91;94451.31;1796378;78;21019;-50
2021/01/19 10:05:45;;;;;;;30.25;19.23;;;;;;;-0.81;48.75;94448.43;1796369;79;21354;-50
2021/01/19 10:08:13;;;;;;;25.08;16.87;;;;;;;-0.68;48.65;94443.44;1796784;78;21558;-47
2021/01/19 10:10:43;;;;;;;26.70;17.42;;;;;;;-0.48;48.37;94435.16;1796483;78;21155;-51
2021/01/19 10:13:12;;;;;;;26.87;17.65;;;;;;;-0.30;47.79;94428.63;1821426;78;21150;-49
2021/01/19 10:15:40;;;;;;;25.20;16.17;;;;;;;-0.08;47.30;94428.81;1808992;77;21181;-50
2021/01/19 10:18:09;;;;;;;36.70;20.92;;;;;;;0.16;46.96;94419.89;1789303;78;21357;-51
2021/01/19 10:20:39;;;;;;;33.63;20.45;;;;;;;0.39;46.89;94415.59;1830585;77;21158;-49
2021/01/19 10:23:08;;;;;;;26.30;17.87;;;;;;;0.65;46.00;94415.72;1818419;77;21174;-50
2021/01/19 10:25:37;;;;;;;26.65;18.52;;;;;;;0.58;45.67;94415.16;1828555;77;21617;-50
2021/01/19 10:28:06;;;;;;;30.02;19.55;;;;;;;0.41;45.85;94411.92;1825600;77;21600;-49
2021/01/19 10:30:40;;;;;;;27.20;18.87;;;;;;;0.28;46.05;94408.11;1846488;77;22266;-51
2021/01/19 10:33:07;;;;;;;31.30;19.55;;;;;;;0.34;45.92;94403.84;1809726;77;21199;-50
2021/01/19 10:35:38;;;;;;;31.02;20.02;;;;;;;0.69;46.38;94406.43;1808663;77;21588;-53
2021/01/19 10:38:08;;;;;;;33.63;22.07;;;;;;;0.97;45.21;94406.30;1823556;77;21238;-51
2021/01/19 10:40:37;;;;;;;28.85;20.02;;;;;;;1.10;44.73;94398.52;1839179;77;21150;-51
2021/01/19 10:43:09;;;;;;;27.30;19.45;;;;;;;1.25;44.17;94388.55;1845579;77;22207;-54
2021/01/19 10:45:40;;;;;;;29.20;18.87;;;;;;;1.38;44.01;94392.34;1845878;77;21131;-49
2021/01/19 10:48:19;;;;;;;24.92;18.07;;;;;;;1.34;43.92;94381.33;1821896;77;21135;-50
2021/01/19 10:50:48;;;;;;;30.82;19.10;;;;;;;1.30;44.71;94378.64;1790152;77;21136;-49
2021/01/19 10:53:27;;;;;;;27.42;19.15;;;;;;;1.72;44.47;94367.48;1780616;80;21152;-51
2021/01/19 10:55:56;;;;;;;29.92;19.25;;;;;;;2.25;43.52;94367.77;1794582;77;21191;-51
2021/01/19 10:58:24;;;;;;;25.75;17.37;;;;;;;2.82;42.64;94351.80;1805427;77;21476;-49
2021/01/19 11:00:54;;;;;;;28.50;17.67;;;;;;;3.48;41.04;94358.84;1799454;78;21078;-52
2021/01/19 11:03:22;;;;;;;24.90;17.77;;;;;;;3.95;39.41;94357.11;1799253;79;21186;-50
2021/01/19 11:05:52;;;;;;;26.17;18.17;;;;;;;4.24;39.24;94354.84;1788718;77;21503;-51
2021/01/19 11:08:21;;;;;;;24.72;18.32;;;;;;;4.52;38.86;94350.25;1781224;79;23515;-51
2021/01/19 11:10:49;;;;;;;30.15;18.73;;;;;;;4.52;37.78;94349.47;1781085;80;21572;-51
2021/01/19 11:13:18;;;;;;;26.17;16.67;;;;;;;4.19;37.91;94334.92;1781018;79;21124;-50
2021/01/19 11:15:47;;;;;;;27.05;18.75;;;;;;;3.81;38.62;94341.02;1781032;79;21143;-51
2021/01/19 11:18:20;;;;;;;29.80;20.48;;;;;;;3.56;39.51;94337.36;1797663;79;21054;-50
2021/01/19 11:20:47;;;;;;;28.45;20.77;;;;;;;3.47;40.11;94327.40;1813097;78;21197;-51
2021/01/19 11:23:15;;;;;;;22.95;16.48;;;;;;;3.66;39.88;94330.20;1812528;78;21153;-48
2021/01/19 11:25:43;;;;;;;21.48;16.73;;;;;;;4.02;39.41;94325.11;1812828;79;21577;-53
2021/01/19 11:28:14;;;;;;;28.10;17.55;;;;;;;4.30;38.33;94323.25;1785872;79;21628;-53
2021/01/19 11:30:42;;;;;;;26.90;16.45;;;;;;;4.34;38.29;94317.14;1812692;79;21161;-49
2021/01/19 11:33:11;;;;;;;24.80;17.75;;;;;;;4.33;38.13;94318.33;1812996;79;21242;-48